sensor_id;sensor_type;location;lat;lon;timestamp;P1;durP1;ratioP1;P2;durP2;ratioP2
15383;SDS011;7790;53.022;12.968;2023-06-22T00:00:08;7.17;;;6.57;;
15383;SDS011;7790;53.022;12.968;2023-06-22T00:04:32;6.97;;;6.37;;
15383;SDS011;7790;53.022;12.968;2023-06-22T00:08:32;7.27;;;6.67;;
15383;SDS011;7790;53.022;12.968;2023-06-22T00:12:33;7.23;;;6.63;;
15383;SDS011;7790;53.022;12.968;2023-06-22T00:16:34;6.83;;;6.23;;
15383;SDS011;7790;53.022;12.968;2023-06-22T00:20:35;6.87;;;6.37;;
15383;SDS011;7790;53.022;12.968;2023-06-22T00:24:37;6.60;;;6.10;;
15383;SDS011;7790;53.022;12.968;2023-06-22T00:28:38;6.73;;;6.23;;
15383;SDS011;7790;53.022;12.968;2023-06-22T00:32:39;6.90;;;6.30;;
15383;SDS011;7790;53.022;12.968;2023-06-22T00:36:41;6.47;;;5.97;;
15383;SDS011;7790;53.022;12.968;2023-06-22T00:40:41;6.90;;;6.33;;
15383;SDS011;7790;53.022;12.968;2023-06-22T00:44:42;7.77;;;6.70;;
15383;SDS011;7790;53.022;12.968;2023-06-22T00:48:45;6.63;;;6.10;;
15383;SDS011;7790;53.022;12.968;2023-06-22T00:52:56;6.47;;;5.97;;
15383;SDS011;7790;53.022;12.968;2023-06-22T00:56:58;6.43;;;5.83;;
15383;SDS011;7790;53.022;12.968;2023-06-22T01:00:59;6.70;;;6.00;;
15383;SDS011;7790;53.022;12.968;2023-06-22T01:05:01;6.47;;;5.90;;
15383;SDS011;7790;53.022;12.968;2023-06-22T01:09:06;6.37;;;5.87;;
15383;SDS011;7790;53.022;12.968;2023-06-22T01:17:43;6.87;;;6.30;;
15383;SDS011;7790;53.022;12.968;2023-06-22T01:21:45;5.57;;;5.17;;
15383;SDS011;7790;53.022;12.968;2023-06-22T01:25:48;5.30;;;4.93;;
15383;SDS011;7790;53.022;12.968;2023-06-22T01:29:59;5.53;;;5.03;;
15383;SDS011;7790;53.022;12.968;2023-06-22T01:34:05;5.50;;;5.10;;
15383;SDS011;7790;53.022;12.968;2023-06-22T01:38:07;5.30;;;4.93;;
15383;SDS011;7790;53.022;12.968;2023-06-22T01:42:09;5.40;;;4.90;;
15383;SDS011;7790;53.022;12.968;2023-06-22T01:46:14;5.20;;;4.80;;
15383;SDS011;7790;53.022;12.968;2023-06-22T01:50:16;5.43;;;4.93;;
15383;SDS011;7790;53.022;12.968;2023-06-22T01:54:17;6.63;;;5.33;;
15383;SDS011;7790;53.022;12.968;2023-06-22T01:58:21;5.30;;;4.90;;
15383;SDS011;7790;53.022;12.968;2023-06-22T02:02:27;5.83;;;5.43;;
15383;SDS011;7790;53.022;12.968;2023-06-22T02:06:38;7.57;;;5.30;;
15383;SDS011;7790;53.022;12.968;2023-06-22T02:10:44;5.50;;;5.10;;
15383;SDS011;7790;53.022;12.968;2023-06-22T02:14:46;5.67;;;5.13;;
15383;SDS011;7790;53.022;12.968;2023-06-22T02:18:47;6.73;;;5.87;;
15383;SDS011;7790;53.022;12.968;2023-06-22T02:22:52;6.30;;;5.70;;
15383;SDS011;7790;53.022;12.968;2023-06-22T02:26:52;6.00;;;5.50;;
15383;SDS011;7790;53.022;12.968;2023-06-22T02:30:53;8.03;;;5.90;;
15383;SDS011;7790;53.022;12.968;2023-06-22T02:34:54;9.07;;;6.93;;
15383;SDS011;7790;53.022;12.968;2023-06-22T02:38:58;8.00;;;6.90;;
15383;SDS011;7790;53.022;12.968;2023-06-22T02:43:01;11.53;;;7.37;;
15383;SDS011;7790;53.022;12.968;2023-06-22T02:47:03;8.40;;;6.90;;
15383;SDS011;7790;53.022;12.968;2023-06-22T02:51:04;6.67;;;5.97;;
15383;SDS011;7790;53.022;12.968;2023-06-22T02:55:05;6.27;;;5.77;;
15383;SDS011;7790;53.022;12.968;2023-06-22T02:59:08;6.53;;;5.77;;
15383;SDS011;7790;53.022;12.968;2023-06-22T03:03:12;5.67;;;4.97;;
15383;SDS011;7790;53.022;12.968;2023-06-22T03:07:13;5.83;;;5.37;;
15383;SDS011;7790;53.022;12.968;2023-06-22T03:11:14;6.50;;;5.83;;
15383;SDS011;7790;53.022;12.968;2023-06-22T03:15:15;5.63;;;5.07;;
15383;SDS011;7790;53.022;12.968;2023-06-22T03:19:17;5.80;;;5.30;;
15383;SDS011;7790;53.022;12.968;2023-06-22T03:23:19;5.83;;;5.33;;
15383;SDS011;7790;53.022;12.968;2023-06-22T03:27:20;5.70;;;5.20;;
15383;SDS011;7790;53.022;12.968;2023-06-22T03:31:22;6.57;;;5.47;;
15383;SDS011;7790;53.022;12.968;2023-06-22T03:35:23;6.10;;;5.50;;
15383;SDS011;7790;53.022;12.968;2023-06-22T03:39:24;5.60;;;5.10;;
15383;SDS011;7790;53.022;12.968;2023-06-22T03:43:25;5.70;;;4.77;;
15383;SDS011;7790;53.022;12.968;2023-06-22T03:47:26;5.83;;;5.17;;
15383;SDS011;7790;53.022;12.968;2023-06-22T03:51:27;5.93;;;5.30;;
15383;SDS011;7790;53.022;12.968;2023-06-22T03:55:28;6.43;;;5.77;;
15383;SDS011;7790;53.022;12.968;2023-06-22T03:59:29;6.30;;;5.80;;
15383;SDS011;7790;53.022;12.968;2023-06-22T04:03:30;6.27;;;5.70;;
15383;SDS011;7790;53.022;12.968;2023-06-22T04:07:30;5.77;;;5.17;;
15383;SDS011;7790;53.022;12.968;2023-06-22T04:11:31;6.60;;;5.60;;
15383;SDS011;7790;53.022;12.968;2023-06-22T04:15:33;6.63;;;5.93;;
15383;SDS011;7790;53.022;12.968;2023-06-22T04:19:35;6.17;;;5.57;;
15383;SDS011;7790;53.022;12.968;2023-06-22T04:23:36;7.00;;;6.00;;
15383;SDS011;7790;53.022;12.968;2023-06-22T04:27:36;6.60;;;6.07;;
15383;SDS011;7790;53.022;12.968;2023-06-22T04:31:40;7.37;;;6.67;;
15383;SDS011;7790;53.022;12.968;2023-06-22T04:35:41;7.97;;;7.00;;
15383;SDS011;7790;53.022;12.968;2023-06-22T04:39:44;11.53;;;7.30;;
15383;SDS011;7790;53.022;12.968;2023-06-22T04:43:45;8.23;;;7.23;;
15383;SDS011;7790;53.022;12.968;2023-06-22T04:47:54;8.10;;;7.03;;
15383;SDS011;7790;53.022;12.968;2023-06-22T04:51:55;9.70;;;7.07;;
15383;SDS011;7790;53.022;12.968;2023-06-22T04:55:56;10.03;;;6.90;;
15383;SDS011;7790;53.022;12.968;2023-06-22T04:59:57;9.07;;;6.97;;
15383;SDS011;7790;53.022;12.968;2023-06-22T05:04:14;10.60;;;7.47;;
15383;SDS011;7790;53.022;12.968;2023-06-22T05:08:15;7.57;;;6.70;;
15383;SDS011;7790;53.022;12.968;2023-06-22T05:12:18;7.30;;;6.70;;
15383;SDS011;7790;53.022;12.968;2023-06-22T05:16:19;10.93;;;7.33;;
15383;SDS011;7790;53.022;12.968;2023-06-22T05:20:26;9.90;;;8.33;;
15383;SDS011;7790;53.022;12.968;2023-06-22T05:24:27;7.63;;;6.83;;
15383;SDS011;7790;53.022;12.968;2023-06-22T05:28:28;10.03;;;8.53;;
15383;SDS011;7790;53.022;12.968;2023-06-22T05:32:29;10.17;;;7.53;;
15383;SDS011;7790;53.022;12.968;2023-06-22T05:36:30;11.03;;;7.93;;
15383;SDS011;7790;53.022;12.968;2023-06-22T05:40:30;7.73;;;6.93;;
15383;SDS011;7790;53.022;12.968;2023-06-22T05:44:32;7.97;;;7.10;;
15383;SDS011;7790;53.022;12.968;2023-06-22T05:48:33;7.43;;;6.57;;
15383;SDS011;7790;53.022;12.968;2023-06-22T05:52:34;6.97;;;5.93;;
15383;SDS011;7790;53.022;12.968;2023-06-22T05:56:35;8.50;;;5.23;;
15383;SDS011;7790;53.022;12.968;2023-06-22T06:00:36;6.37;;;5.00;;
15383;SDS011;7790;53.022;12.968;2023-06-22T06:04:37;6.80;;;5.23;;
15383;SDS011;7790;53.022;12.968;2023-06-22T06:08:38;6.60;;;4.97;;
15383;SDS011;7790;53.022;12.968;2023-06-22T06:12:39;7.17;;;5.23;;
15383;SDS011;7790;53.022;12.968;2023-06-22T06:16:40;6.37;;;4.47;;
15383;SDS011;7790;53.022;12.968;2023-06-22T06:20:41;6.90;;;4.53;;
15383;SDS011;7790;53.022;12.968;2023-06-22T06:24:42;5.70;;;5.20;;
15383;SDS011;7790;53.022;12.968;2023-06-22T06:28:43;7.57;;;5.20;;
15383;SDS011;7790;53.022;12.968;2023-06-22T06:32:44;6.93;;;5.30;;
15383;SDS011;7790;53.022;12.968;2023-06-22T06:36:46;6.00;;;5.13;;
15383;SDS011;7790;53.022;12.968;2023-06-22T06:40:47;5.10;;;4.60;;
15383;SDS011;7790;53.022;12.968;2023-06-22T06:44:49;9.53;;;4.90;;
15383;SDS011;7790;53.022;12.968;2023-06-22T06:48:50;6.43;;;4.10;;
15383;SDS011;7790;53.022;12.968;2023-06-22T06:52:51;3.60;;;3.30;;
15383;SDS011;7790;53.022;12.968;2023-06-22T06:56:52;4.60;;;3.80;;
15383;SDS011;7790;53.022;12.968;2023-06-22T07:00:52;5.10;;;3.67;;
15383;SDS011;7790;53.022;12.968;2023-06-22T07:04:53;6.13;;;3.73;;
15383;SDS011;7790;53.022;12.968;2023-06-22T07:08:55;4.93;;;3.73;;
15383;SDS011;7790;53.022;12.968;2023-06-22T07:12:56;5.00;;;3.77;;
15383;SDS011;7790;53.022;12.968;2023-06-22T07:16:57;4.63;;;3.70;;
15383;SDS011;7790;53.022;12.968;2023-06-22T07:20:58;3.77;;;3.47;;
15383;SDS011;7790;53.022;12.968;2023-06-22T07:24:59;13.00;;;4.03;;
15383;SDS011;7790;53.022;12.968;2023-06-22T07:29:01;6.37;;;3.40;;
15383;SDS011;7790;53.022;12.968;2023-06-22T07:33:02;4.50;;;3.73;;
15383;SDS011;7790;53.022;12.968;2023-06-22T07:37:04;5.50;;;3.80;;
15383;SDS011;7790;53.022;12.968;2023-06-22T07:41:05;10.27;;;4.13;;
15383;SDS011;7790;53.022;12.968;2023-06-22T07:45:06;5.70;;;3.60;;
15383;SDS011;7790;53.022;12.968;2023-06-22T07:49:11;11.60;;;4.20;;
15383;SDS011;7790;53.022;12.968;2023-06-22T07:53:12;6.33;;;3.63;;
15383;SDS011;7790;53.022;12.968;2023-06-22T07:57:13;7.20;;;3.80;;
15383;SDS011;7790;53.022;12.968;2023-06-22T08:01:14;5.50;;;3.90;;
15383;SDS011;7790;53.022;12.968;2023-06-22T08:05:15;10.20;;;3.70;;
15383;SDS011;7790;53.022;12.968;2023-06-22T08:09:17;4.97;;;3.27;;
15383;SDS011;7790;53.022;12.968;2023-06-22T08:13:18;4.13;;;3.57;;
15383;SDS011;7790;53.022;12.968;2023-06-22T08:17:19;7.27;;;3.60;;
15383;SDS011;7790;53.022;12.968;2023-06-22T08:21:20;3.70;;;3.10;;
15383;SDS011;7790;53.022;12.968;2023-06-22T08:25:21;4.07;;;3.20;;
15383;SDS011;7790;53.022;12.968;2023-06-22T08:29:22;5.40;;;3.10;;
15383;SDS011;7790;53.022;12.968;2023-06-22T08:33:23;5.17;;;3.57;;
15383;SDS011;7790;53.022;12.968;2023-06-22T08:37:28;5.37;;;3.13;;
15383;SDS011;7790;53.022;12.968;2023-06-22T08:41:35;3.67;;;3.13;;
15383;SDS011;7790;53.022;12.968;2023-06-22T08:45:36;5.00;;;2.90;;
15383;SDS011;7790;53.022;12.968;2023-06-22T08:49:37;3.83;;;2.80;;
15383;SDS011;7790;53.022;12.968;2023-06-22T08:53:37;3.73;;;3.37;;
15383;SDS011;7790;53.022;12.968;2023-06-22T08:57:38;3.67;;;2.70;;
15383;SDS011;7790;53.022;12.968;2023-06-22T09:01:39;3.67;;;3.17;;
15383;SDS011;7790;53.022;12.968;2023-06-22T09:05:40;3.27;;;2.90;;
15383;SDS011;7790;53.022;12.968;2023-06-22T09:09:41;3.17;;;2.80;;
15383;SDS011;7790;53.022;12.968;2023-06-22T09:13:42;2.80;;;2.60;;
15383;SDS011;7790;53.022;12.968;2023-06-22T09:17:43;3.60;;;2.87;;
15383;SDS011;7790;53.022;12.968;2023-06-22T09:21:44;2.93;;;2.50;;
15383;SDS011;7790;53.022;12.968;2023-06-22T09:25:45;3.07;;;2.87;;
15383;SDS011;7790;53.022;12.968;2023-06-22T09:29:48;3.47;;;2.77;;
15383;SDS011;7790;53.022;12.968;2023-06-22T09:33:49;2.70;;;2.50;;
15383;SDS011;7790;53.022;12.968;2023-06-22T09:37:50;2.67;;;2.47;;
15383;SDS011;7790;53.022;12.968;2023-06-22T09:41:51;2.70;;;2.50;;
15383;SDS011;7790;53.022;12.968;2023-06-22T09:45:52;2.50;;;2.30;;
15383;SDS011;7790;53.022;12.968;2023-06-22T09:49:53;2.60;;;2.40;;
15383;SDS011;7790;53.022;12.968;2023-06-22T09:53:55;4.07;;;2.33;;
15383;SDS011;7790;53.022;12.968;2023-06-22T09:57:56;3.80;;;2.70;;
15383;SDS011;7790;53.022;12.968;2023-06-22T10:01:57;2.53;;;2.33;;
15383;SDS011;7790;53.022;12.968;2023-06-22T10:05:58;2.47;;;2.27;;
15383;SDS011;7790;53.022;12.968;2023-06-22T10:09:59;3.27;;;2.30;;
15383;SDS011;7790;53.022;12.968;2023-06-22T10:14:00;2.90;;;2.70;;
15383;SDS011;7790;53.022;12.968;2023-06-22T10:18:01;2.70;;;2.50;;
15383;SDS011;7790;53.022;12.968;2023-06-22T10:22:03;3.10;;;2.80;;
15383;SDS011;7790;53.022;12.968;2023-06-22T10:26:07;2.70;;;2.50;;
15383;SDS011;7790;53.022;12.968;2023-06-22T10:30:11;2.60;;;2.40;;
15383;SDS011;7790;53.022;12.968;2023-06-22T10:34:13;2.67;;;2.47;;
15383;SDS011;7790;53.022;12.968;2023-06-22T10:38:14;2.67;;;2.40;;
15383;SDS011;7790;53.022;12.968;2023-06-22T10:42:15;2.80;;;2.60;;
15383;SDS011;7790;53.022;12.968;2023-06-22T10:46:16;2.87;;;2.67;;
15383;SDS011;7790;53.022;12.968;2023-06-22T10:50:17;2.63;;;2.43;;
15383;SDS011;7790;53.022;12.968;2023-06-22T10:54:18;2.50;;;2.30;;
15383;SDS011;7790;53.022;12.968;2023-06-22T10:58:19;2.87;;;2.60;;
15383;SDS011;7790;53.022;12.968;2023-06-22T11:02:20;3.10;;;2.90;;
15383;SDS011;7790;53.022;12.968;2023-06-22T11:06:21;2.70;;;2.50;;
15383;SDS011;7790;53.022;12.968;2023-06-22T11:10:22;2.67;;;2.50;;
15383;SDS011;7790;53.022;12.968;2023-06-22T11:14:23;2.70;;;2.50;;
15383;SDS011;7790;53.022;12.968;2023-06-22T11:18:23;3.03;;;2.83;;
15383;SDS011;7790;53.022;12.968;2023-06-22T11:22:24;2.80;;;2.60;;
15383;SDS011;7790;53.022;12.968;2023-06-22T11:26:25;2.90;;;2.70;;
15383;SDS011;7790;53.022;12.968;2023-06-22T11:30:30;3.20;;;3.00;;
15383;SDS011;7790;53.022;12.968;2023-06-22T11:34:31;3.50;;;3.20;;
15383;SDS011;7790;53.022;12.968;2023-06-22T11:38:31;3.33;;;3.00;;
15383;SDS011;7790;53.022;12.968;2023-06-22T11:42:33;3.13;;;2.93;;
15383;SDS011;7790;53.022;12.968;2023-06-22T11:46:34;3.63;;;3.10;;
15383;SDS011;7790;53.022;12.968;2023-06-22T11:50:35;4.33;;;3.80;;
15383;SDS011;7790;53.022;12.968;2023-06-22T11:54:36;4.20;;;3.90;;
15383;SDS011;7790;53.022;12.968;2023-06-22T11:58:37;3.80;;;3.50;;
15383;SDS011;7790;53.022;12.968;2023-06-22T12:02:38;5.97;;;3.57;;
15383;SDS011;7790;53.022;12.968;2023-06-22T12:06:39;4.60;;;3.10;;
15383;SDS011;7790;53.022;12.968;2023-06-22T12:10:42;3.63;;;3.33;;
15383;SDS011;7790;53.022;12.968;2023-06-22T12:14:43;3.90;;;3.60;;
15383;SDS011;7790;53.022;12.968;2023-06-22T12:18:44;3.97;;;3.67;;
15383;SDS011;7790;53.022;12.968;2023-06-22T12:22:45;6.53;;;4.07;;
15383;SDS011;7790;53.022;12.968;2023-06-22T12:26:46;4.00;;;3.70;;
15383;SDS011;7790;53.022;12.968;2023-06-22T12:30:47;4.37;;;3.70;;
15383;SDS011;7790;53.022;12.968;2023-06-22T12:34:47;3.70;;;3.40;;
15383;SDS011;7790;53.022;12.968;2023-06-22T12:38:48;4.23;;;3.87;;
15383;SDS011;7790;53.022;12.968;2023-06-22T12:42:49;4.00;;;3.70;;
15383;SDS011;7790;53.022;12.968;2023-06-22T12:46:50;4.13;;;3.77;;
15383;SDS011;7790;53.022;12.968;2023-06-22T12:50:51;3.70;;;3.40;;
15383;SDS011;7790;53.022;12.968;2023-06-22T12:54:52;5.37;;;3.93;;
15383;SDS011;7790;53.022;12.968;2023-06-22T12:58:54;4.67;;;3.60;;
15383;SDS011;7790;53.022;12.968;2023-06-22T13:02:55;3.83;;;3.53;;
15383;SDS011;7790;53.022;12.968;2023-06-22T13:06:56;4.60;;;3.50;;
15383;SDS011;7790;53.022;12.968;2023-06-22T13:10:57;3.90;;;3.60;;
15383;SDS011;7790;53.022;12.968;2023-06-22T13:14:57;3.80;;;3.50;;
15383;SDS011;7790;53.022;12.968;2023-06-22T13:18:58;4.03;;;3.73;;
15383;SDS011;7790;53.022;12.968;2023-06-22T13:22:59;3.83;;;3.53;;
15383;SDS011;7790;53.022;12.968;2023-06-22T13:27:00;3.73;;;3.43;;
15383;SDS011;7790;53.022;12.968;2023-06-22T13:31:01;4.00;;;3.70;;
15383;SDS011;7790;53.022;12.968;2023-06-22T13:35:02;4.17;;;3.87;;
15383;SDS011;7790;53.022;12.968;2023-06-22T13:39:03;3.80;;;3.50;;
15383;SDS011;7790;53.022;12.968;2023-06-22T13:43:04;4.43;;;4.03;;
15383;SDS011;7790;53.022;12.968;2023-06-22T13:47:05;5.63;;;3.73;;
15383;SDS011;7790;53.022;12.968;2023-06-22T13:51:06;7.13;;;3.90;;
15383;SDS011;7790;53.022;12.968;2023-06-22T13:55:08;4.57;;;4.17;;
15383;SDS011;7790;53.022;12.968;2023-06-22T13:59:10;4.67;;;4.17;;
15383;SDS011;7790;53.022;12.968;2023-06-22T14:03:10;4.73;;;3.80;;
15383;SDS011;7790;53.022;12.968;2023-06-22T14:07:16;4.33;;;4.03;;
15383;SDS011;7790;53.022;12.968;2023-06-22T14:11:17;4.50;;;4.20;;
15383;SDS011;7790;53.022;12.968;2023-06-22T14:15:17;4.47;;;4.07;;
15383;SDS011;7790;53.022;12.968;2023-06-22T14:19:18;4.57;;;4.27;;
15383;SDS011;7790;53.022;12.968;2023-06-22T14:23:19;4.90;;;4.07;;
15383;SDS011;7790;53.022;12.968;2023-06-22T14:27:20;4.20;;;3.90;;
15383;SDS011;7790;53.022;12.968;2023-06-22T14:31:21;3.93;;;3.63;;
15383;SDS011;7790;53.022;12.968;2023-06-22T14:35:22;4.13;;;3.83;;
15383;SDS011;7790;53.022;12.968;2023-06-22T14:39:24;5.30;;;4.00;;
15383;SDS011;7790;53.022;12.968;2023-06-22T14:43:25;4.23;;;3.90;;
15383;SDS011;7790;53.022;12.968;2023-06-22T14:47:26;3.90;;;3.60;;
15383;SDS011;7790;53.022;12.968;2023-06-22T14:51:27;4.07;;;3.77;;
15383;SDS011;7790;53.022;12.968;2023-06-22T14:55:28;4.53;;;3.83;;
15383;SDS011;7790;53.022;12.968;2023-06-22T14:59:29;4.10;;;3.80;;
15383;SDS011;7790;53.022;12.968;2023-06-22T15:03:30;4.40;;;3.93;;
15383;SDS011;7790;53.022;12.968;2023-06-22T15:07:32;4.37;;;4.07;;
15383;SDS011;7790;53.022;12.968;2023-06-22T15:11:33;4.10;;;3.80;;
15383;SDS011;7790;53.022;12.968;2023-06-22T15:15:34;4.10;;;3.80;;
15383;SDS011;7790;53.022;12.968;2023-06-22T15:19:35;5.53;;;4.10;;
15383;SDS011;7790;53.022;12.968;2023-06-22T15:23:37;6.30;;;4.40;;
15383;SDS011;7790;53.022;12.968;2023-06-22T15:27:38;4.73;;;4.30;;
15383;SDS011;7790;53.022;12.968;2023-06-22T15:31:39;4.80;;;4.40;;
15383;SDS011;7790;53.022;12.968;2023-06-22T15:35:40;4.50;;;4.20;;
15383;SDS011;7790;53.022;12.968;2023-06-22T15:39:40;4.90;;;3.90;;
15383;SDS011;7790;53.022;12.968;2023-06-22T15:43:41;4.53;;;4.13;;
15383;SDS011;7790;53.022;12.968;2023-06-22T15:47:43;4.90;;;4.40;;
15383;SDS011;7790;53.022;12.968;2023-06-22T15:51:44;4.27;;;3.93;;
15383;SDS011;7790;53.022;12.968;2023-06-22T15:55:45;4.70;;;4.00;;
15383;SDS011;7790;53.022;12.968;2023-06-22T15:59:47;4.33;;;3.57;;
15383;SDS011;7790;53.022;12.968;2023-06-22T16:03:51;4.60;;;4.20;;
15383;SDS011;7790;53.022;12.968;2023-06-22T16:07:54;4.80;;;4.23;;
15383;SDS011;7790;53.022;12.968;2023-06-22T16:11:56;4.67;;;4.27;;
15383;SDS011;7790;53.022;12.968;2023-06-22T16:15:57;4.77;;;3.77;;
15383;SDS011;7790;53.022;12.968;2023-06-22T16:19:58;4.67;;;4.23;;
15383;SDS011;7790;53.022;12.968;2023-06-22T16:23:59;4.80;;;4.30;;
15383;SDS011;7790;53.022;12.968;2023-06-22T16:28:00;5.57;;;4.30;;
15383;SDS011;7790;53.022;12.968;2023-06-22T16:32:02;4.30;;;4.00;;
15383;SDS011;7790;53.022;12.968;2023-06-22T16:36:03;4.67;;;4.33;;
15383;SDS011;7790;53.022;12.968;2023-06-22T16:40:04;4.10;;;3.80;;
15383;SDS011;7790;53.022;12.968;2023-06-22T16:44:05;5.03;;;4.17;;
15383;SDS011;7790;53.022;12.968;2023-06-22T16:48:06;4.47;;;4.10;;
15383;SDS011;7790;53.022;12.968;2023-06-22T16:52:08;4.43;;;4.07;;
15383;SDS011;7790;53.022;12.968;2023-06-22T16:56:09;4.27;;;3.93;;
15383;SDS011;7790;53.022;12.968;2023-06-22T17:00:11;4.57;;;4.00;;
15383;SDS011;7790;53.022;12.968;2023-06-22T17:04:12;4.37;;;4.07;;
15383;SDS011;7790;53.022;12.968;2023-06-22T17:08:18;3.87;;;3.57;;
15383;SDS011;7790;53.022;12.968;2023-06-22T17:12:21;4.17;;;3.87;;
15383;SDS011;7790;53.022;12.968;2023-06-22T17:16:25;5.43;;;4.00;;
15383;SDS011;7790;53.022;12.968;2023-06-22T17:20:31;4.30;;;3.90;;
15383;SDS011;7790;53.022;12.968;2023-06-22T17:24:32;4.47;;;4.07;;
15383;SDS011;7790;53.022;12.968;2023-06-22T17:28:48;4.27;;;3.97;;
15383;SDS011;7790;53.022;12.968;2023-06-22T17:32:53;4.00;;;3.70;;
15383;SDS011;7790;53.022;12.968;2023-06-22T17:36:55;3.93;;;3.63;;
15383;SDS011;7790;53.022;12.968;2023-06-22T17:41:00;4.47;;;4.10;;
15383;SDS011;7790;53.022;12.968;2023-06-22T17:45:02;4.87;;;4.30;;
15383;SDS011;7790;53.022;12.968;2023-06-22T17:49:07;5.20;;;4.43;;
15383;SDS011;7790;53.022;12.968;2023-06-22T17:53:09;6.10;;;4.80;;
15383;SDS011;7790;53.022;12.968;2023-06-22T17:57:14;6.87;;;4.43;;
15383;SDS011;7790;53.022;12.968;2023-06-22T18:01:34;7.93;;;4.67;;
15383;SDS011;7790;53.022;12.968;2023-06-22T18:05:39;6.73;;;4.40;;
15383;SDS011;7790;53.022;12.968;2023-06-22T18:09:46;6.67;;;4.50;;
15383;SDS011;7790;53.022;12.968;2023-06-22T18:13:48;6.83;;;4.47;;
15383;SDS011;7790;53.022;12.968;2023-06-22T18:17:49;9.53;;;4.40;;
15383;SDS011;7790;53.022;12.968;2023-06-22T18:21:51;4.90;;;4.37;;
15383;SDS011;7790;53.022;12.968;2023-06-22T18:25:52;5.23;;;4.60;;
15383;SDS011;7790;53.022;12.968;2023-06-22T18:29:54;5.47;;;4.23;;
15383;SDS011;7790;53.022;12.968;2023-06-22T18:33:56;5.83;;;4.50;;
15383;SDS011;7790;53.022;12.968;2023-06-22T18:37:58;4.60;;;4.20;;
15383;SDS011;7790;53.022;12.968;2023-06-22T18:42:00;4.87;;;4.40;;
15383;SDS011;7790;53.022;12.968;2023-06-22T18:46:28;4.67;;;4.20;;
15383;SDS011;7790;53.022;12.968;2023-06-22T18:50:45;4.30;;;4.00;;
15383;SDS011;7790;53.022;12.968;2023-06-22T18:54:48;5.10;;;4.60;;
15383;SDS011;7790;53.022;12.968;2023-06-22T18:58:55;5.10;;;4.60;;
15383;SDS011;7790;53.022;12.968;2023-06-22T19:02:57;5.07;;;4.57;;
15383;SDS011;7790;53.022;12.968;2023-06-22T19:06:59;4.70;;;4.30;;
15383;SDS011;7790;53.022;12.968;2023-06-22T19:11:11;4.67;;;4.33;;
15383;SDS011;7790;53.022;12.968;2023-06-22T19:15:13;4.80;;;4.40;;
15383;SDS011;7790;53.022;12.968;2023-06-22T19:19:15;4.83;;;4.43;;
15383;SDS011;7790;53.022;12.968;2023-06-22T19:23:23;4.97;;;4.57;;
15383;SDS011;7790;53.022;12.968;2023-06-22T19:27:30;5.20;;;4.80;;
15383;SDS011;7790;53.022;12.968;2023-06-22T19:31:31;4.77;;;4.40;;
15383;SDS011;7790;53.022;12.968;2023-06-22T19:35:33;4.60;;;4.20;;
15383;SDS011;7790;53.022;12.968;2023-06-22T19:39:37;4.83;;;4.30;;
15383;SDS011;7790;53.022;12.968;2023-06-22T19:43:38;6.03;;;4.60;;
15383;SDS011;7790;53.022;12.968;2023-06-22T19:47:39;5.20;;;4.70;;
15383;SDS011;7790;53.022;12.968;2023-06-22T19:51:39;4.80;;;4.27;;
15383;SDS011;7790;53.022;12.968;2023-06-22T19:55:41;5.00;;;4.50;;
15383;SDS011;7790;53.022;12.968;2023-06-22T19:59:43;4.30;;;4.00;;
15383;SDS011;7790;53.022;12.968;2023-06-22T20:03:45;4.93;;;4.47;;
15383;SDS011;7790;53.022;12.968;2023-06-22T20:07:46;4.90;;;4.50;;
15383;SDS011;7790;53.022;12.968;2023-06-22T20:11:47;4.50;;;4.20;;
15383;SDS011;7790;53.022;12.968;2023-06-22T20:15:56;4.93;;;4.43;;
15383;SDS011;7790;53.022;12.968;2023-06-22T20:19:57;8.37;;;4.43;;
15383;SDS011;7790;53.022;12.968;2023-06-22T20:24:05;5.10;;;4.60;;
15383;SDS011;7790;53.022;12.968;2023-06-22T20:28:10;5.67;;;4.17;;
15383;SDS011;7790;53.022;12.968;2023-06-22T20:32:13;4.50;;;4.10;;
15383;SDS011;7790;53.022;12.968;2023-06-22T20:36:14;4.73;;;4.30;;
15383;SDS011;7790;53.022;12.968;2023-06-22T20:40:17;5.13;;;4.60;;
15383;SDS011;7790;53.022;12.968;2023-06-22T20:44:18;4.87;;;4.37;;
15383;SDS011;7790;53.022;12.968;2023-06-22T20:48:19;4.37;;;4.07;;
15383;SDS011;7790;53.022;12.968;2023-06-22T20:52:21;4.93;;;4.47;;
15383;SDS011;7790;53.022;12.968;2023-06-22T20:56:23;4.70;;;4.30;;
15383;SDS011;7790;53.022;12.968;2023-06-22T21:00:24;4.87;;;4.37;;
15383;SDS011;7790;53.022;12.968;2023-06-22T21:04:25;6.23;;;4.30;;
15383;SDS011;7790;53.022;12.968;2023-06-22T21:08:26;6.17;;;4.40;;
15383;SDS011;7790;53.022;12.968;2023-06-22T21:12:27;6.20;;;4.73;;
15383;SDS011;7790;53.022;12.968;2023-06-22T21:16:28;5.83;;;5.10;;
15383;SDS011;7790;53.022;12.968;2023-06-22T21:20:29;5.03;;;4.60;;
15383;SDS011;7790;53.022;12.968;2023-06-22T21:24:30;7.53;;;4.73;;
15383;SDS011;7790;53.022;12.968;2023-06-22T21:28:31;6.60;;;4.50;;
15383;SDS011;7790;53.022;12.968;2023-06-22T21:32:32;7.27;;;5.30;;
15383;SDS011;7790;53.022;12.968;2023-06-22T21:36:33;5.60;;;5.10;;
15383;SDS011;7790;53.022;12.968;2023-06-22T21:40:34;7.63;;;5.10;;
15383;SDS011;7790;53.022;12.968;2023-06-22T21:44:35;5.87;;;5.27;;
15383;SDS011;7790;53.022;12.968;2023-06-22T21:48:36;6.47;;;5.77;;
15383;SDS011;7790;53.022;12.968;2023-06-22T21:52:36;8.60;;;5.67;;
15383;SDS011;7790;53.022;12.968;2023-06-22T21:56:37;7.93;;;5.40;;
15383;SDS011;7790;53.022;12.968;2023-06-22T22:00:38;6.53;;;5.80;;
15383;SDS011;7790;53.022;12.968;2023-06-22T22:04:39;7.63;;;6.03;;
15383;SDS011;7790;53.022;12.968;2023-06-22T22:08:40;6.97;;;5.50;;
15383;SDS011;7790;53.022;12.968;2023-06-22T22:12:41;6.73;;;6.13;;
15383;SDS011;7790;53.022;12.968;2023-06-22T22:16:42;8.40;;;5.90;;
15383;SDS011;7790;53.022;12.968;2023-06-22T22:20:43;10.50;;;6.00;;
15383;SDS011;7790;53.022;12.968;2023-06-22T22:24:43;8.03;;;5.77;;
15383;SDS011;7790;53.022;12.968;2023-06-22T22:28:44;7.10;;;5.83;;
15383;SDS011;7790;53.022;12.968;2023-06-22T22:32:45;5.90;;;5.30;;
15383;SDS011;7790;53.022;12.968;2023-06-22T22:36:46;5.67;;;4.90;;
15383;SDS011;7790;53.022;12.968;2023-06-22T22:40:47;5.50;;;5.00;;
15383;SDS011;7790;53.022;12.968;2023-06-22T22:44:48;5.87;;;4.83;;
15383;SDS011;7790;53.022;12.968;2023-06-22T22:48:48;7.03;;;4.90;;
15383;SDS011;7790;53.022;12.968;2023-06-22T22:52:50;5.57;;;4.40;;
15383;SDS011;7790;53.022;12.968;2023-06-22T22:56:51;5.07;;;4.40;;
15383;SDS011;7790;53.022;12.968;2023-06-22T23:00:55;7.13;;;4.20;;
15383;SDS011;7790;53.022;12.968;2023-06-22T23:04:57;4.97;;;4.10;;
15383;SDS011;7790;53.022;12.968;2023-06-22T23:08:59;4.83;;;3.73;;
15383;SDS011;7790;53.022;12.968;2023-06-22T23:13:00;4.13;;;3.73;;
15383;SDS011;7790;53.022;12.968;2023-06-22T23:17:00;4.33;;;3.93;;
15383;SDS011;7790;53.022;12.968;2023-06-22T23:21:01;5.30;;;3.67;;
15383;SDS011;7790;53.022;12.968;2023-06-22T23:25:05;4.23;;;3.70;;
15383;SDS011;7790;53.022;12.968;2023-06-22T23:29:08;4.00;;;3.60;;
15383;SDS011;7790;53.022;12.968;2023-06-22T23:33:10;4.43;;;3.80;;
15383;SDS011;7790;53.022;12.968;2023-06-22T23:37:11;4.63;;;4.20;;
15383;SDS011;7790;53.022;12.968;2023-06-22T23:41:12;4.37;;;3.97;;
15383;SDS011;7790;53.022;12.968;2023-06-22T23:45:17;4.03;;;3.67;;
15383;SDS011;7790;53.022;12.968;2023-06-22T23:49:19;4.97;;;4.00;;
15383;SDS011;7790;53.022;12.968;2023-06-22T23:53:20;4.00;;;3.70;;
15383;SDS011;7790;53.022;12.968;2023-06-22T23:57:21;4.07;;;3.67;;
